createdAt,value
2019-03-23T00:01:03.202Z,7.10
2019-03-23T00:03:35.745Z,7.83
2019-03-23T00:06:09.949Z,7.20
2019-03-23T00:08:43.887Z,6.97
2019-03-23T00:11:16.576Z,7.53
2019-03-23T00:13:49.122Z,7.33
2019-03-23T00:16:21.863Z,7.53
2019-03-23T00:18:55.464Z,9.17
2019-03-23T00:21:28.196Z,10.47
2019-03-23T00:24:01.536Z,25.07
2019-03-23T00:26:35.405Z,19.37
2019-03-23T00:29:08.110Z,17.20
2019-03-23T00:31:40.832Z,15.93
2019-03-23T00:34:13.502Z,15.17
2019-03-23T00:36:46.122Z,12.03
2019-03-23T00:39:21.390Z,12.63
2019-03-23T00:41:53.903Z,8.80
2019-03-23T00:44:43.217Z,7.90
2019-03-23T00:47:15.891Z,7.90
2019-03-23T00:49:48.739Z,8.07
2019-03-23T00:52:30.691Z,7.33
2019-03-23T00:55:03.305Z,8.30
2019-03-23T00:57:35.914Z,7.10
2019-03-23T01:00:09.604Z,8.13
2019-03-23T01:02:42.425Z,7.70
2019-03-23T01:05:15.040Z,7.80
2019-03-23T01:07:47.768Z,9.53
2019-03-23T01:10:27.010Z,9.97
2019-03-23T01:12:59.754Z,9.80
2019-03-23T01:15:42.917Z,11.33
2019-03-23T01:18:15.435Z,11.00
2019-03-23T01:20:49.942Z,11.70
2019-03-23T01:23:22.357Z,12.23
2019-03-23T01:25:58.326Z,14.63
2019-03-23T01:28:30.848Z,13.80
2019-03-23T01:31:06.539Z,10.20
2019-03-23T01:33:39.212Z,10.03
2019-03-23T01:36:21.058Z,10.70
2019-03-23T01:38:53.633Z,10.80
2019-03-23T01:41:33.642Z,13.10
2019-03-23T01:44:06.984Z,10.32
2019-03-23T01:46:42.506Z,9.43
2019-03-23T01:49:15.076Z,10.08
2019-03-23T01:51:47.597Z,10.73
2019-03-23T01:54:20.032Z,11.23
2019-03-23T01:56:52.629Z,12.17
2019-03-23T01:59:25.272Z,11.60
2019-03-23T02:01:57.838Z,13.07
2019-03-23T02:04:30.467Z,12.13
2019-03-23T02:07:13.172Z,12.67
2019-03-23T02:09:37.433Z,11.70
2019-03-23T02:12:10.157Z,12.10
2019-03-23T02:14:42.569Z,12.18
2019-03-23T02:17:15.099Z,12.20
2019-03-23T02:19:47.695Z,10.03
2019-03-23T02:22:20.348Z,10.17
2019-03-23T02:24:53.031Z,12.10
2019-03-23T02:27:25.647Z,11.12
2019-03-23T02:29:58.178Z,11.35
2019-03-23T02:32:30.754Z,11.80
2019-03-23T02:35:03.321Z,17.73
2019-03-23T02:37:35.976Z,12.43
2019-03-23T02:40:09.296Z,16.10
2019-03-23T02:42:41.925Z,14.75
2019-03-23T02:45:14.902Z,12.78
2019-03-23T02:47:47.283Z,10.38
2019-03-23T02:50:19.986Z,10.38
2019-03-23T02:52:55.716Z,11.20
2019-03-23T02:55:28.352Z,11.20
2019-03-23T02:58:04.151Z,12.68
2019-03-23T03:00:36.836Z,10.32
2019-03-23T03:03:09.603Z,9.30
2019-03-23T03:05:42.332Z,9.68
2019-03-23T03:08:23.985Z,9.35
2019-03-23T03:10:56.756Z,9.10
2019-03-23T03:13:36.843Z,10.30
2019-03-23T03:16:09.518Z,10.95
2019-03-23T03:18:42.094Z,10.47
2019-03-23T03:21:14.555Z,10.28
2019-03-23T03:23:56.631Z,9.75
2019-03-23T03:26:29.002Z,10.70
2019-03-23T03:29:01.661Z,11.05
2019-03-23T03:31:34.220Z,11.10
2019-03-23T03:34:10.782Z,11.25
2019-03-23T03:36:43.953Z,10.60
2019-03-23T03:39:34.454Z,10.08
2019-03-23T03:42:07.862Z,10.60
2019-03-23T03:44:40.187Z,10.48
2019-03-23T03:47:12.791Z,12.55
2019-03-23T03:49:45.508Z,12.55
2019-03-23T03:52:17.994Z,11.83
2019-03-23T03:54:53.557Z,12.18
2019-03-23T03:57:25.916Z,12.18
2019-03-23T04:00:07.600Z,11.88
2019-03-23T04:02:40.106Z,11.12
2019-03-23T04:05:15.772Z,12.53
2019-03-23T04:07:48.371Z,12.95
2019-03-23T04:10:30.606Z,11.73
2019-03-23T04:13:03.047Z,11.78
2019-03-23T04:15:35.931Z,11.88
2019-03-23T04:18:08.232Z,12.70
2019-03-23T04:20:46.254Z,13.18
2019-03-23T04:23:18.941Z,12.98
2019-03-23T04:25:55.551Z,11.93
2019-03-23T04:28:29.075Z,12.30
2019-03-23T04:31:05.747Z,10.93
2019-03-23T04:33:38.310Z,11.90
2019-03-23T04:36:14.747Z,12.65
2019-03-23T04:38:47.283Z,12.03
2019-03-23T04:41:27.527Z,10.82
2019-03-23T04:44:00.052Z,10.98
2019-03-23T04:46:41.345Z,10.63
2019-03-23T04:49:13.868Z,11.35
2019-03-23T04:51:46.373Z,11.68
2019-03-23T04:54:18.899Z,12.33
2019-03-23T04:56:57.540Z,12.35
2019-03-23T04:59:30.187Z,12.98
2019-03-23T05:02:15.040Z,12.73
2019-03-23T05:04:47.507Z,12.78
2019-03-23T05:07:20.372Z,13.00
2019-03-23T05:09:52.972Z,12.85
2019-03-23T05:12:28.980Z,12.78
2019-03-23T05:15:01.504Z,12.25
2019-03-23T05:17:34.191Z,12.60
2019-03-23T05:20:07.452Z,12.73
2019-03-23T05:22:40.050Z,13.32
2019-03-23T05:25:24.948Z,12.65
2019-03-23T05:27:57.764Z,12.43
2019-03-23T05:30:30.323Z,12.93
2019-03-23T05:33:03.008Z,10.90
2019-03-23T05:35:36.641Z,12.10
2019-03-23T05:38:09.018Z,12.20
2019-03-23T05:40:41.504Z,12.73
2019-03-23T05:43:13.893Z,12.33
2019-03-23T05:45:46.378Z,13.18
2019-03-23T05:48:18.829Z,12.40
2019-03-23T05:50:51.470Z,11.48
2019-03-23T05:53:24.060Z,13.20
2019-03-23T05:55:56.567Z,12.30
2019-03-23T05:58:29.105Z,10.73
2019-03-23T06:01:01.785Z,11.60
2019-03-23T06:03:34.227Z,11.33
2019-03-23T06:06:06.959Z,12.03
2019-03-23T06:08:39.503Z,11.17
2019-03-23T06:11:11.929Z,10.80
2019-03-23T06:13:44.474Z,11.47
2019-03-23T06:16:17.918Z,10.17
2019-03-23T06:18:50.625Z,11.70
2019-03-23T06:21:23.238Z,11.80
2019-03-23T06:23:55.773Z,9.97
2019-03-23T06:26:28.448Z,9.50
2019-03-23T06:29:01.029Z,9.97
2019-03-23T06:31:33.595Z,9.87
2019-03-23T06:34:06.062Z,8.23
2019-03-23T06:36:39.115Z,8.63
2019-03-23T06:39:11.640Z,9.07
2019-03-23T06:41:44.139Z,9.87
2019-03-23T06:44:18.390Z,10.50
2019-03-23T06:46:51.107Z,10.60
2019-03-23T06:49:23.701Z,9.70
2019-03-23T06:51:56.229Z,9.30
2019-03-23T06:54:28.930Z,10.07
2019-03-23T06:57:01.479Z,9.67
2019-03-23T06:59:34.240Z,9.87
2019-03-23T07:02:06.678Z,9.20
2019-03-23T07:04:39.207Z,14.67
2019-03-23T07:07:11.655Z,11.67
2019-03-23T07:09:47.273Z,11.03
2019-03-23T07:12:19.885Z,10.03
2019-03-23T07:14:56.601Z,15.70
2019-03-23T07:17:30.116Z,71.47
2019-03-23T07:20:08.355Z,76.00
2019-03-23T07:22:41.404Z,24.60
2019-03-23T07:25:22.973Z,9.03
2019-03-23T07:27:55.824Z,7.40
2019-03-23T07:30:31.296Z,8.17
2019-03-23T07:33:03.861Z,7.23
2019-03-23T07:35:37.845Z,7.00
2019-03-23T07:38:10.929Z,8.53
2019-03-23T07:40:52.530Z,7.57
2019-03-23T07:43:25.245Z,7.73
2019-03-23T07:46:02.964Z,7.47
2019-03-23T07:48:35.803Z,7.83
2019-03-23T07:51:14.464Z,7.83
2019-03-23T07:53:47.044Z,7.60
2019-03-23T07:56:19.717Z,8.20
2019-03-23T07:58:52.959Z,7.70
2019-03-23T08:01:28.618Z,8.03
2019-03-23T08:04:01.680Z,9.97
2019-03-23T08:06:44.079Z,9.07
2019-03-23T08:09:20.670Z,8.57
2019-03-23T08:11:52.856Z,8.43
2019-03-23T08:14:25.779Z,8.13
2019-03-23T08:17:04.497Z,9.20
2019-03-23T08:19:38.394Z,7.17
2019-03-23T08:22:11.285Z,7.13
2019-03-23T08:24:43.850Z,5.97
2019-03-23T08:27:19.813Z,5.07
2019-03-23T08:29:52.293Z,5.07
2019-03-23T08:32:31.808Z,5.00
2019-03-23T08:35:05.414Z,4.73
2019-03-23T08:37:41.481Z,4.70
2019-03-23T08:40:14.364Z,4.67
2019-03-23T08:42:56.665Z,6.37
2019-03-23T08:45:30.003Z,5.23
2019-03-23T08:48:06.089Z,5.53
2019-03-23T08:50:40.398Z,4.70
2019-03-23T08:53:20.579Z,7.83
2019-03-23T08:55:53.438Z,4.40
2019-03-23T08:58:32.233Z,4.17
2019-03-23T09:01:05.353Z,9.20
2019-03-23T09:03:40.788Z,4.60
2019-03-23T09:06:13.362Z,4.87
2019-03-23T09:08:46.086Z,3.93
2019-03-23T09:11:20.615Z,4.30
2019-03-23T09:13:54.068Z,3.70
2019-03-23T09:16:26.674Z,4.10
2019-03-23T09:18:59.293Z,4.80
2019-03-23T09:21:31.703Z,4.07
2019-03-23T09:24:04.310Z,4.50
2019-03-23T09:26:36.948Z,6.43
2019-03-23T09:29:21.382Z,4.07
2019-03-23T09:31:53.866Z,4.00
2019-03-23T09:34:26.581Z,4.37
2019-03-23T09:37:00.690Z,3.90
2019-03-23T09:39:40.026Z,4.33
2019-03-23T09:42:12.633Z,3.93
2019-03-23T09:44:45.245Z,8.00
2019-03-23T09:47:17.938Z,3.80
2019-03-23T09:49:53.822Z,3.57
2019-03-23T09:52:27.057Z,3.87
2019-03-23T09:55:13.248Z,3.67
2019-03-23T09:57:46.188Z,4.50
2019-03-23T10:00:19.553Z,4.47
2019-03-23T10:02:52.247Z,4.80
2019-03-23T10:05:24.864Z,4.43
2019-03-23T10:07:57.418Z,4.67
2019-03-23T10:10:34.213Z,5.63
2019-03-23T10:13:06.700Z,4.47
2019-03-23T10:15:51.838Z,4.10
2019-03-23T10:18:24.468Z,3.90
2019-03-23T10:21:00.022Z,4.30
2019-03-23T10:23:33.042Z,4.83
2019-03-23T10:26:11.678Z,5.00
2019-03-23T10:28:44.754Z,4.63
2019-03-23T10:31:20.779Z,4.40
2019-03-23T10:33:53.754Z,4.30
2019-03-23T10:36:26.996Z,4.13
2019-03-23T10:38:59.703Z,4.03
2019-03-23T10:41:41.059Z,4.30
2019-03-23T10:44:13.708Z,4.27
2019-03-23T10:46:54.634Z,4.10
2019-03-23T10:49:27.365Z,4.57
2019-03-23T10:51:59.892Z,4.13
2019-03-23T10:54:32.546Z,4.23
2019-03-23T10:57:11.419Z,3.97
2019-03-23T10:59:44.079Z,3.63
2019-03-23T11:02:19.766Z,3.87
2019-03-23T11:04:52.715Z,3.17
2019-03-23T11:07:35.137Z,3.50
2019-03-23T11:10:08.280Z,5.37
2019-03-23T11:12:41.285Z,3.83
2019-03-23T11:15:14.278Z,3.50
2019-03-23T11:17:50.793Z,3.30
2019-03-23T11:20:24.673Z,3.07
2019-03-23T11:23:05.000Z,3.53
2019-03-23T11:25:39.084Z,3.77
2019-03-23T11:28:15.201Z,3.60
2019-03-23T11:30:48.435Z,3.70
2019-03-23T11:33:28.119Z,3.80
2019-03-23T11:36:00.911Z,3.60
2019-03-23T11:38:37.967Z,3.87
2019-03-23T11:41:17.993Z,3.77
2019-03-23T11:43:50.973Z,3.83
2019-03-23T11:46:23.809Z,3.80
2019-03-23T11:48:57.441Z,4.17
2019-03-23T11:51:30.003Z,4.03
2019-03-23T11:54:02.795Z,4.03
2019-03-23T11:56:35.584Z,3.60
2019-03-23T11:59:08.225Z,3.60
2019-03-23T12:01:51.303Z,3.67
2019-03-23T12:04:16.026Z,3.93
2019-03-23T12:06:48.825Z,3.83
2019-03-23T12:09:24.604Z,3.83
2019-03-23T12:11:57.633Z,3.57
2019-03-23T12:14:31.452Z,4.13
2019-03-23T12:17:04.655Z,4.13
2019-03-23T12:19:37.166Z,4.00
2019-03-23T12:22:10.055Z,4.00
2019-03-23T12:24:42.773Z,4.13
2019-03-23T12:27:15.979Z,4.30
2019-03-23T12:29:48.963Z,4.70
2019-03-23T12:32:21.747Z,40.40
2019-03-23T12:34:54.450Z,4.00
2019-03-23T12:37:27.164Z,58.30
2019-03-23T12:39:59.902Z,4.60
2019-03-23T12:42:33.541Z,3.87
2019-03-23T12:45:06.728Z,4.70
2019-03-23T12:47:39.440Z,11.17
2019-03-23T12:50:13.166Z,24.10
2019-03-23T12:52:45.870Z,97.23
2019-03-23T12:55:19.255Z,9.63
2019-03-23T12:57:52.009Z,3.80
2019-03-23T13:00:24.998Z,3.57
2019-03-23T13:02:57.464Z,4.00
2019-03-23T13:05:30.095Z,4.50
2019-03-23T13:08:03.097Z,4.10
2019-03-23T13:10:36.332Z,4.10
2019-03-23T13:13:08.934Z,3.90
2019-03-23T13:15:41.638Z,4.20
2019-03-23T13:18:14.602Z,3.80
2019-03-23T13:20:47.219Z,3.97
2019-03-23T13:23:20.461Z,3.80
2019-03-23T13:25:53.436Z,3.90
2019-03-23T13:28:26.485Z,3.80
2019-03-23T13:30:59.244Z,4.00
2019-03-23T13:33:31.626Z,3.80
2019-03-23T13:36:04.545Z,4.67
2019-03-23T13:38:39.880Z,4.27
2019-03-23T13:41:13.447Z,4.07
2019-03-23T13:43:46.123Z,4.20
2019-03-23T13:46:18.683Z,4.10
2019-03-23T13:48:51.088Z,4.10
2019-03-23T13:51:24.639Z,4.93
2019-03-23T13:53:57.299Z,4.17
2019-03-23T13:56:30.184Z,4.40
2019-03-23T13:59:02.777Z,4.50
2019-03-23T14:01:36.655Z,4.37
2019-03-23T14:04:10.169Z,4.30
2019-03-23T14:06:42.889Z,4.50
2019-03-23T14:09:16.204Z,4.57
2019-03-23T14:11:54.951Z,4.70
2019-03-23T14:14:24.044Z,4.80
2019-03-23T14:16:57.758Z,4.80
2019-03-23T14:19:30.926Z,4.33
2019-03-23T14:22:03.528Z,4.50
2019-03-23T14:24:36.082Z,4.67
2019-03-23T14:27:09.186Z,4.53
2019-03-23T14:29:41.823Z,4.47
2019-03-23T14:32:15.097Z,4.57
2019-03-23T14:34:47.670Z,4.20
2019-03-23T14:37:20.365Z,4.60
2019-03-23T14:39:53.100Z,4.37
2019-03-23T14:42:26.459Z,4.37
2019-03-23T14:45:00.038Z,4.50
2019-03-23T14:47:34.401Z,4.43
2019-03-23T14:50:07.892Z,4.40
2019-03-23T14:52:40.700Z,4.53
2019-03-23T14:55:13.274Z,4.03
2019-03-23T14:57:46.703Z,4.50
2019-03-23T15:00:32.087Z,4.30
2019-03-23T15:03:05.539Z,4.60
2019-03-23T15:05:38.868Z,4.40
2019-03-23T15:08:13.659Z,4.53
2019-03-23T15:10:46.541Z,4.50
2019-03-23T15:13:19.252Z,4.43
2019-03-23T15:15:52.280Z,4.30
2019-03-23T15:18:25.238Z,4.70
2019-03-23T15:20:59.003Z,4.00
2019-03-23T15:23:39.284Z,3.90
2019-03-23T15:26:12.130Z,4.43
2019-03-23T15:28:47.600Z,4.33
2019-03-23T15:31:21.326Z,4.30
2019-03-23T15:34:00.107Z,4.20
2019-03-23T15:36:32.874Z,4.40
2019-03-23T15:39:07.472Z,4.37
2019-03-23T15:41:40.735Z,4.40
2019-03-23T15:44:13.844Z,4.60
2019-03-23T15:46:46.656Z,4.30
2019-03-23T15:49:19.718Z,5.03
2019-03-23T15:51:52.324Z,4.23
2019-03-23T15:54:26.010Z,4.93
2019-03-23T15:56:59.693Z,4.40
2019-03-23T15:59:32.615Z,5.50
2019-03-23T16:02:05.402Z,4.37
2019-03-23T16:04:38.012Z,4.57
2019-03-23T16:07:10.789Z,4.70
2019-03-23T16:09:44.419Z,4.23
2019-03-23T16:12:17.143Z,4.20
2019-03-23T16:14:49.808Z,4.17
2019-03-23T16:17:22.386Z,4.77
2019-03-23T16:19:54.899Z,5.47
2019-03-23T16:22:28.000Z,4.73
2019-03-23T16:25:01.289Z,4.20
2019-03-23T16:27:34.317Z,4.57
2019-03-23T16:30:08.847Z,4.73
2019-03-23T16:32:41.463Z,4.30
2019-03-23T16:35:14.529Z,5.10
2019-03-23T16:37:47.698Z,5.30
2019-03-23T16:40:20.411Z,5.83
2019-03-23T16:42:53.069Z,5.97
2019-03-23T16:45:25.553Z,7.00
2019-03-23T16:47:58.218Z,8.30
2019-03-23T16:50:31.433Z,9.67
2019-03-23T16:53:04.755Z,11.10
2019-03-23T16:55:38.606Z,8.43
2019-03-23T16:58:16.060Z,6.20
2019-03-23T17:00:46.215Z,11.93
2019-03-23T17:03:19.216Z,12.50
2019-03-23T17:05:51.937Z,13.37
2019-03-23T17:08:24.715Z,15.50
2019-03-23T17:10:57.388Z,18.47
2019-03-23T17:13:31.168Z,12.13
2019-03-23T17:16:04.570Z,9.30
2019-03-23T17:18:38.208Z,7.87
2019-03-23T17:21:11.006Z,8.57
2019-03-23T17:23:43.916Z,12.93
2019-03-23T17:26:17.453Z,9.07
2019-03-23T17:28:50.770Z,9.10
2019-03-23T17:31:23.961Z,8.77
2019-03-23T17:33:56.742Z,9.17
2019-03-23T17:36:29.516Z,9.47
2019-03-23T17:39:02.227Z,9.80
2019-03-23T17:41:35.583Z,9.57
2019-03-23T17:44:08.788Z,9.77
2019-03-23T17:46:42.207Z,10.70
2019-03-23T17:49:16.208Z,11.70
2019-03-23T17:51:48.930Z,11.00
2019-03-23T17:54:22.054Z,10.47
2019-03-23T17:56:54.935Z,11.97
2019-03-23T17:59:28.740Z,13.63
2019-03-23T18:02:02.147Z,14.63
2019-03-23T18:04:34.711Z,12.07
2019-03-23T18:07:07.466Z,11.23
2019-03-23T18:09:40.387Z,57.30
2019-03-23T18:12:13.597Z,7.47
2019-03-23T18:14:47.472Z,22.50
2019-03-23T18:17:20.292Z,7.00
2019-03-23T18:19:53.347Z,15.47
2019-03-23T18:22:26.665Z,7.70
2019-03-23T18:24:59.467Z,10.17
2019-03-23T18:27:32.630Z,8.23
2019-03-23T18:30:05.985Z,6.97
2019-03-23T18:32:40.573Z,7.40
2019-03-23T18:35:14.537Z,9.90
2019-03-23T18:37:48.962Z,13.33
2019-03-23T18:40:23.482Z,18.80
2019-03-23T18:43:01.914Z,22.87
2019-03-23T18:45:35.764Z,15.03
2019-03-23T18:48:09.612Z,11.37
2019-03-23T18:50:42.993Z,10.20
2019-03-23T18:53:15.907Z,10.27
2019-03-23T18:55:48.658Z,12.43
2019-03-23T18:58:21.575Z,46.77
2019-03-23T19:00:54.531Z,44.30
2019-03-23T19:03:27.682Z,116.03
2019-03-23T19:06:00.718Z,138.07
2019-03-23T19:08:41.045Z,201.27
2019-03-23T19:11:15.005Z,58.40
2019-03-23T19:13:52.358Z,35.40
2019-03-23T19:16:25.131Z,27.87
2019-03-23T19:19:01.764Z,16.90
2019-03-23T19:21:42.912Z,11.07
2019-03-23T19:24:17.586Z,10.47
2019-03-23T19:26:52.411Z,15.57
2019-03-23T19:29:27.776Z,15.93
2019-03-23T19:32:01.950Z,12.83
2019-03-23T19:34:36.094Z,31.90
2019-03-23T19:37:09.342Z,31.90
2019-03-23T19:39:45.638Z,27.07
2019-03-23T19:42:18.506Z,21.80
2019-03-23T19:44:54.829Z,16.20
2019-03-23T19:47:28.162Z,11.90
2019-03-23T19:50:01.210Z,13.50
2019-03-23T19:52:33.859Z,12.93
2019-03-23T19:55:09.945Z,12.43
2019-03-23T19:57:42.861Z,11.13
2019-03-23T20:00:28.621Z,8.67
2019-03-23T20:03:05.103Z,9.43
2019-03-23T20:05:37.750Z,14.17
2019-03-23T20:08:10.723Z,11.90
2019-03-23T20:10:43.737Z,10.90
2019-03-23T20:13:16.743Z,9.83
2019-03-23T20:15:52.342Z,10.50
2019-03-23T20:18:25.174Z,12.80
2019-03-23T20:21:07.864Z,9.07
2019-03-23T20:23:41.165Z,8.77
2019-03-23T20:26:18.715Z,9.67
2019-03-23T20:28:51.626Z,14.77
2019-03-23T20:31:27.663Z,9.77
2019-03-23T20:34:02.599Z,9.87
2019-03-23T20:36:39.001Z,9.60
2019-03-23T20:39:12.055Z,8.73
2019-03-23T20:41:47.643Z,14.17
2019-03-23T20:44:20.519Z,11.63
2019-03-23T20:46:53.967Z,9.30
2019-03-23T20:49:28.782Z,7.33
2019-03-23T20:52:02.155Z,6.57
2019-03-23T20:54:37.800Z,5.87
2019-03-23T20:57:11.224Z,6.50
2019-03-23T20:59:46.408Z,6.57
2019-03-23T21:02:19.719Z,4.73
2019-03-23T21:04:53.246Z,5.53
2019-03-23T21:07:27.067Z,7.53
2019-03-23T21:10:00.455Z,19.53
2019-03-23T21:12:34.477Z,9.33
2019-03-23T21:15:08.759Z,6.00
2019-03-23T21:17:51.106Z,15.27
2019-03-23T21:20:19.881Z,21.07
2019-03-23T21:22:53.295Z,18.73
2019-03-23T21:25:29.943Z,14.93
2019-03-23T21:28:04.771Z,12.33
2019-03-23T21:30:39.080Z,9.77
2019-03-23T21:33:12.739Z,6.63
2019-03-23T21:35:45.642Z,5.30
2019-03-23T21:38:19.718Z,5.20
2019-03-23T21:40:53.610Z,4.83
2019-03-23T21:43:27.360Z,5.03
2019-03-23T21:46:00.122Z,4.60
2019-03-23T21:48:33.261Z,5.53
2019-03-23T21:51:06.484Z,5.57
2019-03-23T21:53:39.624Z,4.27
2019-03-23T21:56:12.610Z,4.97
2019-03-23T21:58:45.465Z,6.27
2019-03-23T22:01:18.517Z,8.67
2019-03-23T22:03:52.869Z,6.77
2019-03-23T22:06:28.439Z,5.33
2019-03-23T22:09:01.344Z,5.20
2019-03-23T22:11:34.731Z,4.53
2019-03-23T22:14:07.876Z,4.43
2019-03-23T22:16:40.673Z,4.63
2019-03-23T22:19:13.647Z,4.33
2019-03-23T22:21:47.085Z,4.20
2019-03-23T22:24:19.781Z,3.97
2019-03-23T22:26:52.742Z,4.50
2019-03-23T22:29:25.671Z,5.40
2019-03-23T22:32:01.965Z,4.60
2019-03-23T22:34:36.042Z,5.13
2019-03-23T22:37:09.020Z,7.40
2019-03-23T22:39:41.838Z,12.77
2019-03-23T22:42:14.522Z,13.43
2019-03-23T22:44:54.446Z,16.30
2019-03-23T22:47:27.221Z,10.07
2019-03-23T22:49:59.911Z,6.50
2019-03-23T22:52:32.600Z,5.33
2019-03-23T22:55:06.894Z,5.30
2019-03-23T22:57:40.060Z,5.10
2019-03-23T23:00:17.017Z,5.20
2019-03-23T23:02:50.193Z,4.20
2019-03-23T23:05:23.151Z,4.50
2019-03-23T23:07:56.232Z,4.17
2019-03-23T23:10:29.116Z,13.63
2019-03-23T23:13:02.860Z,17.57
2019-03-23T23:15:35.445Z,22.83
2019-03-23T23:18:08.517Z,21.00
2019-03-23T23:20:40.978Z,20.00
2019-03-23T23:23:13.937Z,20.03
2019-03-23T23:25:46.487Z,5.03
2019-03-23T23:28:26.340Z,4.47
2019-03-23T23:30:58.915Z,4.83
2019-03-23T23:33:31.505Z,30.40
2019-03-23T23:36:04.113Z,13.40
2019-03-23T23:38:36.947Z,10.63
2019-03-23T23:41:09.826Z,11.67
2019-03-23T23:43:42.792Z,11.23
2019-03-23T23:46:15.668Z,11.07
2019-03-23T23:48:51.700Z,6.40
2019-03-23T23:51:24.333Z,5.43
2019-03-23T23:54:00.027Z,4.40
2019-03-23T23:56:32.771Z,5.27
2019-03-23T23:59:12.629Z,6.20
